Time;durP1;ratioP1;P1;durP2;ratioP2;P2;SDS_P1;SDS_P2;PMS_P1;PMS_P2;Temp;Humidity;BMP_temperature;BMP_pressure;BME280_temperature;BME280_humidity;BME280_pressure;Samples;Min_cycle;Max_cycle;Signal;HPM_P1;HPM_P2
2022/02/01 00:01:38;;;;;;;;;11.00;9.50;;;;;8.57;47.23;102400.53;4886851;29;45401;-70
2022/02/01 00:04:07;;;;;;;;;13.25;10.50;;;;;8.58;47.06;102381.91;4901500;29;48242;-70
2022/02/01 00:14:21;;;;;;;;;14.75;11.00;;;;;8.56;47.06;102374.81;4885284;29;45512;-70
2022/02/01 00:17:10;;;;;;;;;12.00;9.50;;;;;8.56;47.04;102381.03;4887009;29;45156;-70
2022/02/01 00:35:50;;;;;;;;;8.50;7.00;;;;;8.56;46.98;102382.81;4886494;29;45430;-70
2022/02/01 00:38:39;;;;;;;;;7.00;7.00;;;;;8.53;47.34;102373.03;4886632;29;45366;-70
2022/02/01 00:41:05;;;;;;;;;7.25;6.25;;;;;8.53;46.95;102378.34;4874648;29;45470;-70
2022/02/01 00:43:32;;;;;;;;;8.00;8.00;;;;;8.51;47.01;102377.47;4876212;29;45256;-70
2022/02/01 00:46:00;;;;;;;;;11.75;8.00;;;;;8.53;46.99;102384.53;4883857;29;45258;-70
2022/02/01 00:48:26;;;;;;;;;4.00;3.00;;;;;8.48;47.07;102372.13;4886386;29;45589;-70
2022/02/01 00:50:52;;;;;;;;;7.50;6.50;;;;;8.50;47.31;102381.91;4873276;29;45477;-70
2022/02/01 00:53:21;;;;;;;;;8.25;7.50;;;;;8.48;47.12;102385.44;4885901;29;45686;-70
2022/02/01 00:55:46;;;;;;;;;8.25;8.00;;;;;8.46;47.42;102398.72;4885733;29;46218;-70
2022/02/01 00:58:12;;;;;;;;;7.00;7.00;;;;;8.45;47.32;102407.63;4886197;29;45373;-70
2022/02/01 01:00:37;;;;;;;;;8.00;7.25;;;;;8.44;47.40;102408.50;4886231;29;45660;-70
2022/02/01 01:03:02;;;;;;;;;7.75;6.00;;;;;8.42;47.26;102411.97;4886124;29;45443;-70
2022/02/01 01:05:28;;;;;;;;;10.00;5.50;;;;;8.42;47.43;102410.22;4886252;29;46259;-70
2022/02/01 01:07:53;;;;;;;;;6.75;5.25;;;;;8.33;47.63;102413.72;4886251;29;45249;-70
2022/02/01 01:10:19;;;;;;;;;10.50;6.00;;;;;8.38;47.34;102426.19;4886327;29;45806;-70
2022/02/01 01:12:58;;;;;;;;;7.25;5.25;;;;;8.32;47.48;102417.28;4885648;29;45228;-70
2022/02/01 01:15:28;;;;;;;;;8.00;8.00;;;;;8.39;47.18;102420.88;4884763;29;47369;-70
2022/02/01 01:18:23;;;;;;;;;11.50;6.75;;;;;8.35;47.49;102403.09;4885643;29;45283;-70
2022/02/01 01:45:19;;;;;;;;;6.75;6.25;;;;;8.29;47.88;102371.16;4875817;29;45242;-70
2022/02/01 01:53:22;;;;;;;;;3.75;3.00;;;;;8.35;48.09;102379.13;4879952;29;45416;-70
2022/02/01 01:55:53;;;;;;;;;5.50;5.50;;;;;8.33;48.35;102394.22;4885141;29;45454;-70
2022/02/01 01:58:20;;;;;;;;;3.25;3.25;;;;;8.31;48.33;102391.56;4885118;29;45349;-70
2022/02/01 02:03:18;;;;;;;;;6.00;6.00;;;;;8.33;48.47;102388.91;4885135;29;45269;-70
2022/02/01 02:05:43;;;;;;;;;7.25;4.00;;;;;8.35;48.76;102384.47;4885272;29;45453;-70
2022/02/01 02:08:09;;;;;;;;;6.00;4.00;;;;;8.38;48.79;102378.28;4885523;29;45212;-70
2022/02/01 02:10:45;;;;;;;;;4.00;2.50;;;;;8.40;48.63;102382.69;4885093;29;45234;-70
2022/02/01 02:16:10;;;;;;;;;7.75;4.00;;;;;8.43;48.98;102388.06;4885088;29;45826;-70
2022/02/01 02:18:36;;;;;;;;;5.00;2.75;;;;;8.48;48.90;102378.31;4884287;29;46093;-70
2022/02/01 02:21:04;;;;;;;;;6.00;3.75;;;;;8.49;49.05;102376.56;4883747;29;45802;-70
2022/02/01 02:23:29;;;;;;;;;7.00;3.50;;;;;8.46;48.95;102374.78;4884600;29;45491;-70
2022/02/01 02:25:55;;;;;;;;;5.25;5.25;;;;;8.49;49.25;102392.53;4885105;29;45300;-70
2022/02/01 02:28:22;;;;;;;;;3.00;3.00;;;;;8.51;49.17;102399.63;4884481;29;45800;-70
2022/02/01 02:30:50;;;;;;;;;4.00;4.00;;;;;8.51;49.28;102388.09;4885130;29;45593;-70
2022/02/01 02:33:17;;;;;;;;;6.00;4.00;;;;;8.55;49.61;102379.22;4884734;29;45327;-70
2022/02/01 02:35:56;;;;;;;;;3.50;3.50;;;;;8.52;49.81;102376.59;4884926;29;45254;-70
2022/02/01 02:39:12;;;;;;;;;4.25;3.50;;;;;8.52;49.85;102381.91;4884644;29;47083;-70
2022/02/01 02:46:46;;;;;;;;;7.00;4.00;;;;;8.64;50.04;102371.28;4884813;29;45208;-70
2022/02/01 02:49:14;;;;;;;;;6.00;3.25;;;;;8.69;49.82;102372.16;4883944;29;46482;-70
2022/02/01 02:51:40;;;;;;;;;7.00;4.00;;;;;8.73;49.95;102367.72;4884232;29;45307;-70
2022/02/01 02:54:08;;;;;;;;;2.50;2.50;;;;;8.74;49.85;102363.28;4883863;29;45402;-70
2022/02/01 02:56:34;;;;;;;;;8.50;5.25;;;;;8.73;50.08;102346.44;4884387;29;45447;-70
2022/02/01 02:59:00;;;;;;;;;4.00;4.00;;;;;8.77;50.16;102337.59;4882726;29;46043;-70
2022/02/01 03:01:26;;;;;;;;;6.00;4.00;;;;;8.76;50.47;102324.25;4884512;29;45368;-70
2022/02/01 03:03:52;;;;;;;;;4.00;2.50;;;;;8.79;50.18;102324.28;4898511;29;45460;-70
2022/02/01 03:06:18;;;;;;;;;4.00;3.50;;;;;8.80;50.29;102320.69;4884594;29;45558;-70
2022/02/01 03:08:43;;;;;;;;;6.50;2.75;;;;;8.84;50.61;102320.72;4884030;29;46009;-70
2022/02/01 03:11:14;;;;;;;;;6.75;5.00;;;;;8.85;50.70;102337.56;4884639;29;45309;-70
2022/02/01 03:13:54;;;;;;;;;7.25;3.25;;;;;8.74;50.55;102326.91;4884151;29;45246;-70
2022/02/01 03:21:33;;;;;;;;;5.25;3.00;;;;;8.88;50.92;102329.56;4883197;29;45326;-70
2022/02/01 03:23:58;;;;;;;;;3.00;2.50;;;;;8.90;51.44;102325.13;4884561;29;45446;-70
2022/02/01 03:26:24;;;;;;;;;5.50;4.00;;;;;8.87;50.95;102306.50;4883965;29;45185;-70
2022/02/01 03:28:49;;;;;;;;;7.00;2.25;;;;;8.92;51.29;102317.16;4883306;29;46285;-70
2022/02/01 03:31:16;;;;;;;;;5.00;4.00;;;;;8.90;51.60;102315.38;4884233;29;45296;-70
2022/02/01 03:33:41;;;;;;;;;3.50;2.25;;;;;8.86;51.46;102304.72;4884413;29;45526;-70
2022/02/01 03:36:06;;;;;;;;;5.25;2.75;;;;;8.90;51.65;102317.16;4884234;29;45251;-70
2022/02/01 03:38:32;;;;;;;;;2.50;2.50;;;;;8.94;51.60;102324.25;4883945;29;46283;-70
2022/02/01 03:40:58;;;;;;;;;5.25;3.75;;;;;8.96;51.71;102332.25;4883947;29;45367;-70
2022/02/01 03:43:24;;;;;;;;;6.25;3.00;;;;;8.92;51.95;102325.13;4883607;29;45340;-70
2022/02/01 03:45:49;;;;;;;;;3.50;1.25;;;;;8.97;52.11;102332.25;4883959;29;45511;-70
2022/02/01 03:48:15;;;;;;;;;4.00;3.00;;;;;8.98;52.05;102338.47;4883099;29;46116;-70
2022/02/01 03:50:40;;;;;;;;;2.00;2.00;;;;;8.97;51.96;102334.91;4883924;29;45319;-70
2022/02/01 03:53:07;;;;;;;;;3.00;2.00;;;;;9.00;52.15;102318.91;4883682;29;45349;-70
2022/02/01 03:55:32;;;;;;;;;5.25;2.50;;;;;8.95;52.35;102293.19;4872720;29;45183;-70
2022/02/01 03:57:58;;;;;;;;;2.00;2.00;;;;;9.03;52.35;102294.06;4883540;29;45416;-70
2022/02/01 04:00:23;;;;;;;;;4.25;2.75;;;;;9.03;52.50;102292.28;4883462;29;45481;-70
2022/02/01 04:02:48;;;;;;;;;2.50;2.00;;;;;9.01;52.38;102287.84;4884070;29;45314;-70
2022/02/01 04:05:14;;;;;;;;;3.00;2.00;;;;;9.05;53.24;102285.19;4883814;29;45682;-70
2022/02/01 04:07:45;;;;;;;;;4.00;3.00;;;;;9.04;52.98;102275.41;4883760;29;45249;-70
2022/02/01 04:10:10;;;;;;;;;8.00;4.00;;;;;9.10;52.71;102293.16;4880845;29;45315;-70
2022/02/01 04:12:37;;;;;;;;;3.00;3.00;;;;;9.11;52.83;102292.28;4883667;29;45414;-70
2022/02/01 04:15:04;;;;;;;;;2.75;2.75;;;;;9.09;52.90;102278.09;4882376;29;45420;-70
2022/02/01 04:17:29;;;;;;;;;5.50;3.00;;;;;9.05;52.97;102282.53;4886277;29;45290;-70
2022/02/01 04:19:54;;;;;;;;;4.00;3.00;;;;;9.08;53.30;102284.28;4886424;29;45378;-70
2022/02/01 04:22:20;;;;;;;;;2.75;2.75;;;;;9.12;53.63;102291.41;4887066;29;45317;-70
2022/02/01 04:24:46;;;;;;;;;5.50;4.50;;;;;9.14;53.65;102291.38;4886778;29;45279;-70
2022/02/01 04:27:30;;;;;;;;;3.00;2.25;;;;;9.11;53.89;102278.97;4881104;29;46254;-70
2022/02/01 04:30:06;;;;;;;;;2.25;2.00;;;;;9.14;53.88;102276.28;4882723;29;45578;-70
2022/02/01 04:32:39;;;;;;;;;3.50;2.75;;;;;9.15;54.19;102286.03;4885624;29;45460;-70
2022/02/01 04:35:08;;;;;;;;;4.00;2.00;;;;;9.13;54.40;102276.28;4886619;29;45309;-69
2022/02/01 04:37:34;;;;;;;;;4.75;3.00;;;;;9.13;54.81;102290.50;4886587;29;46132;-70
2022/02/01 04:40:00;;;;;;;;;3.00;1.50;;;;;9.12;54.51;102294.06;4886003;29;45387;-70
2022/02/01 04:42:29;;;;;;;;;1.25;1.25;;;;;9.17;54.71;102297.59;4886181;29;45284;-70
2022/02/01 04:44:55;;;;;;;;;3.25;3.25;;;;;9.21;55.15;102294.03;4886500;29;45224;-70
2022/02/01 04:47:20;;;;;;;;;2.00;2.00;;;;;9.20;55.46;102280.72;4885223;29;46036;-70
2022/02/01 04:49:46;;;;;;;;;2.75;1.00;;;;;9.21;55.49;102287.81;4886086;29;45304;-70
2022/02/01 04:52:11;;;;;;;;;4.25;2.00;;;;;9.19;55.27;102276.28;4882141;29;45433;-70
2022/02/01 04:54:37;;;;;;;;;4.00;1.00;;;;;9.17;55.73;102268.31;4882750;29;45696;-70
2022/02/01 04:57:03;;;;;;;;;3.25;2.00;;;;;9.18;55.76;102264.72;4885068;29;45595;-70
2022/02/01 04:59:28;;;;;;;;;3.25;2.25;;;;;9.19;55.72;102257.66;4885954;29;45424;-70
2022/02/01 05:01:54;;;;;;;;;2.25;2.00;;;;;9.19;55.73;102247.88;4886357;29;45355;-70
2022/02/01 05:04:19;;;;;;;;;2.50;2.00;;;;;9.24;56.20;102243.41;4886438;29;45644;-70
2022/02/01 05:06:48;;;;;;;;;5.00;3.00;;;;;9.25;55.75;102253.19;4886166;29;45405;-70
2022/02/01 05:09:14;;;;;;;;;4.25;2.25;;;;;9.27;55.83;102250.47;4884340;29;45567;-70
2022/02/01 05:11:40;;;;;;;;;2.75;2.00;;;;;9.24;56.14;102243.41;4875714;29;45491;-70
2022/02/01 05:14:11;;;;;;;;;3.00;3.00;;;;;9.21;56.24;102248.75;4880817;29;45264;-70
2022/02/01 05:22:12;;;;;;;;;2.00;2.00;;;;;9.27;56.53;102278.03;4886080;29;45443;-70
2022/02/01 05:24:39;;;;;;;;;2.00;2.00;;;;;9.27;56.64;102275.38;4886035;29;45334;-70
2022/02/01 05:27:09;;;;;;;;;6.25;3.25;;;;;9.23;56.74;102275.38;4884943;29;45500;-70
2022/02/01 05:29:36;;;;;;;;;6.50;3.00;;;;;9.25;56.98;102270.94;4885582;29;45234;-70
2022/02/01 05:32:08;;;;;;;;;3.25;2.00;;;;;9.27;57.04;102272.72;4885626;29;46765;-70
2022/02/01 05:34:33;;;;;;;;;4.25;1.50;;;;;9.28;57.03;102269.13;4879149;29;45266;-70
2022/02/01 05:36:59;;;;;;;;;4.25;2.00;;;;;9.27;56.70;102262.06;4885785;29;45324;-70
2022/02/01 05:39:27;;;;;;;;;2.00;2.00;;;;;9.34;56.96;102270.91;4885517;29;45353;-70
2022/02/01 05:41:54;;;;;;;;;2.75;2.75;;;;;9.33;57.35;102276.25;4885588;29;45329;-72
2022/02/01 05:44:20;;;;;;;;;3.00;1.50;;;;;9.35;57.15;102266.47;4885455;29;45606;-72
2022/02/01 05:46:46;;;;;;;;;1.75;1.75;;;;;9.35;57.54;102247.81;4885548;29;46440;-72
2022/02/01 05:49:11;;;;;;;;;3.25;2.50;;;;;9.33;57.24;102241.59;4884435;29;45475;-72
2022/02/01 05:51:37;;;;;;;;;2.75;2.00;;;;;9.34;57.42;102238.03;4885825;29;45374;-71
2022/02/01 05:54:03;;;;;;;;;3.50;2.50;;;;;9.36;57.93;102233.59;4885253;29;45546;-71
2022/02/01 05:56:29;;;;;;;;;4.00;1.75;;;;;9.32;57.95;102227.41;4885344;29;45378;-72
2022/02/01 05:58:55;;;;;;;;;5.00;3.00;;;;;9.36;58.25;102223.81;4884896;29;45449;-72
2022/02/01 06:01:20;;;;;;;;;3.00;3.00;;;;;9.33;57.59;102221.16;4885654;29;45637;-72
2022/02/01 06:03:47;;;;;;;;;2.00;2.00;;;;;9.36;57.93;102210.50;4884961;29;45457;-72
2022/02/01 06:06:12;;;;;;;;;2.25;2.00;;;;;9.36;58.30;102198.97;4885278;29;46663;-72
2022/02/01 06:08:37;;;;;;;;;3.75;2.50;;;;;9.35;58.13;102191.84;4885179;29;45459;-72
2022/02/01 06:11:03;;;;;;;;;2.25;1.25;;;;;9.36;58.67;102202.50;4885110;29;45350;-72
2022/02/01 06:13:28;;;;;;;;;2.00;2.00;;;;;9.38;58.24;102202.50;4885105;29;45315;-70
2022/02/01 06:15:54;;;;;;;;;2.50;2.00;;;;;9.41;58.98;102207.81;4884947;29;45507;-72
2022/02/01 06:18:19;;;;;;;;;3.50;2.00;;;;;9.43;58.64;102211.34;4884077;29;45373;-71
2022/02/01 06:20:45;;;;;;;;;1.50;1.50;;;;;9.39;58.63;102194.50;4885336;29;45339;-72
2022/02/01 06:23:15;;;;;;;;;5.00;2.75;;;;;9.45;59.02;102215.81;4884976;29;45457;-72
2022/02/01 06:25:51;;;;;;;;;3.00;3.00;;;;;9.40;59.25;102190.03;4884945;29;46358;-72
2022/02/01 06:28:22;;;;;;;;;3.00;2.00;;;;;9.44;58.55;102199.81;4897143;29;45946;-72
2022/02/01 06:30:49;;;;;;;;;5.00;4.75;;;;;9.38;59.00;102203.38;4884208;29;45490;-72
2022/02/01 06:33:15;;;;;;;;;8.00;5.00;;;;;9.41;59.67;102208.69;4886676;29;45490;-70
2022/02/01 06:35:41;;;;;;;;;5.50;4.25;;;;;9.39;59.44;102206.94;4884319;29;45323;-70
2022/02/01 06:38:06;;;;;;;;;2.75;2.75;;;;;9.39;59.25;102205.16;4883358;29;45316;-70
2022/02/01 06:40:32;;;;;;;;;7.75;3.00;;;;;9.38;59.74;102207.81;4882602;29;45426;-70
2022/02/01 06:42:57;;;;;;;;;4.75;4.75;;;;;9.32;59.47;102203.41;4883632;29;45468;-69
2022/02/01 06:45:23;;;;;;;;;4.50;3.00;;;;;9.36;59.59;102206.97;4882605;29;45439;-71
2022/02/01 06:47:49;;;;;;;;;7.75;4.00;;;;;9.34;59.76;102220.28;4884557;29;45312;-72
2022/02/01 06:50:19;;;;;;;;;3.00;3.00;;;;;9.35;59.68;102222.03;4884364;29;45385;-72
2022/02/01 06:52:45;;;;;;;;;3.25;2.00;;;;;9.36;59.76;102207.84;4884373;29;45418;-71
2022/02/01 06:55:12;;;;;;;;;2.25;2.25;;;;;9.31;59.89;102206.97;4878756;29;47180;-78
2022/02/01 06:57:38;;;;;;;;;3.75;3.00;;;;;9.30;59.67;102210.50;4883621;29;45293;-75
2022/02/01 07:00:06;;;;;;;;;4.50;3.00;;;;;9.33;59.92;102206.97;4884048;29;45537;-74
2022/02/01 07:02:31;;;;;;;;;4.25;3.25;;;;;9.30;59.92;102209.63;4884497;29;45451;-76
2022/02/01 07:04:57;;;;;;;;;6.50;3.00;;;;;9.34;59.90;102208.72;4884420;29;45344;-74
2022/02/01 07:07:22;;;;;;;;;4.00;4.00;;;;;9.29;59.86;102200.75;4879117;29;45394;-75
2022/02/01 07:09:47;;;;;;;;;4.00;3.00;;;;;9.24;60.20;102189.25;4880749;29;45317;-76
2022/02/01 07:12:13;;;;;;;;;6.50;4.00;;;;;9.26;60.12;102212.31;4883197;29;45402;-77
2022/02/01 07:14:38;;;;;;;;;6.50;3.50;;;;;9.32;60.23;102226.50;4883075;29;45956;-77
2022/02/01 07:17:03;;;;;;;;;6.50;5.00;;;;;9.30;60.10;102209.63;4898541;29;45257;-77
2022/02/01 07:19:29;;;;;;;;;4.25;4.25;;;;;9.24;60.43;102206.09;4883065;29;45627;-76
2022/02/01 07:21:54;;;;;;;;;9.25;4.00;;;;;9.28;60.76;102210.50;4883803;29;45502;-75
2022/02/01 07:24:27;;;;;;;;;10.75;4.00;;;;;9.30;60.85;102209.63;4884038;29;45218;-76
2022/02/01 07:26:57;;;;;;;;;4.00;4.00;;;;;9.24;61.02;102205.22;4883830;29;45284;-76
2022/02/01 07:29:23;;;;;;;;;6.50;4.00;;;;;9.23;60.93;102214.09;4895613;29;45306;-76
2022/02/01 07:31:48;;;;;;;;;6.00;3.75;;;;;9.16;60.83;102197.25;4880579;29;45472;-79
2022/02/01 07:34:14;;;;;;;;;7.00;4.00;;;;;9.23;60.61;102214.09;4883652;29;45450;-80
2022/02/01 07:36:41;;;;;;;;;4.25;3.50;;;;;9.22;60.78;102212.31;4884168;29;45703;-78
2022/02/01 07:39:06;;;;;;;;;3.00;2.50;;;;;9.25;60.95;102215.88;4884150;29;45358;-79
2022/02/01 07:41:32;;;;;;;;;4.50;4.00;;;;;9.26;61.41;102214.97;4883696;29;45659;-72
2022/02/01 07:43:58;;;;;;;;;7.75;4.75;;;;;9.23;61.45;102190.13;4871276;29;45366;-72
2022/02/01 07:46:23;;;;;;;;;4.00;3.00;;;;;9.28;61.57;102202.53;4883815;29;45352;-73
2022/02/01 07:48:49;;;;;;;;;8.75;3.00;;;;;9.28;61.77;102183.00;4882678;29;45462;-74
2022/02/01 07:51:14;;;;;;;;;9.50;4.00;;;;;9.28;61.33;102186.53;4877760;29;45383;-74
2022/02/01 07:53:39;;;;;;;;;4.50;4.50;;;;;9.25;61.81;102181.25;4884659;29;45435;-72
2022/02/01 07:56:05;;;;;;;;;5.00;5.00;;;;;9.23;62.29;102179.47;4885087;29;45367;-72
2022/02/01 07:58:31;;;;;;;;;6.00;2.25;;;;;9.28;61.86;102178.53;4882549;29;45500;-73
2022/02/01 08:00:56;;;;;;;;;7.00;4.00;;;;;9.26;61.70;102172.34;4885951;29;45513;-73
2022/02/01 08:03:21;;;;;;;;;3.75;3.00;;;;;9.26;61.82;102172.34;4873583;29;45432;-73
2022/02/01 08:05:47;;;;;;;;;3.00;3.00;;;;;9.17;61.71;102151.06;4897073;29;45338;-73
2022/02/01 08:08:13;;;;;;;;;4.75;3.50;;;;;9.21;62.05;102167.94;4885512;29;45671;-74
2022/02/01 08:10:48;;;;;;;;;5.00;3.50;;;;;9.21;62.07;102160.81;4885352;29;45648;-74
2022/02/01 08:21:23;;;;;;;;;4.25;3.75;;;;;9.16;62.79;102148.41;4885579;29;45814;-72
2022/02/01 08:23:49;;;;;;;;;5.00;5.00;;;;;9.19;62.51;102153.75;4885018;29;46162;-72
2022/02/01 08:26:14;;;;;;;;;4.00;3.50;;;;;9.18;62.64;102134.19;4883725;29;45557;-72
2022/02/01 08:28:39;;;;;;;;;5.00;5.00;;;;;9.16;62.83;102138.63;4882181;29;45550;-72
2022/02/01 08:31:05;;;;;;;;;9.00;8.00;;;;;9.20;62.87;102148.38;4884790;29;45423;-72
2022/02/01 08:33:31;;;;;;;;;4.00;4.00;;;;;9.24;62.70;102136.81;4885839;29;45438;-73
2022/02/01 08:35:56;;;;;;;;;6.75;5.25;;;;;9.24;62.96;102131.50;4885027;29;46452;-73
2022/02/01 08:38:22;;;;;;;;;8.00;4.00;;;;;9.23;62.91;102132.38;4881756;29;45561;-73
2022/02/01 08:40:48;;;;;;;;;5.00;4.50;;;;;9.29;63.16;102134.16;4884157;29;45271;-73
2022/02/01 08:43:15;;;;;;;;;4.00;4.00;;;;;9.27;63.07;102131.50;4885485;29;45880;-73
2022/02/01 08:45:42;;;;;;;;;9.50;7.00;;;;;9.32;63.35;102125.22;4885890;29;45278;-73
2022/02/01 08:48:07;;;;;;;;;4.50;4.50;;;;;9.31;63.14;102116.38;4886468;29;45329;-73
2022/02/01 08:50:35;;;;;;;;;8.25;3.50;;;;;9.34;63.19;102107.44;4885789;29;45658;-73
2022/02/01 08:58:21;;;;;;;;;6.00;4.00;;;;;9.36;63.73;102109.22;4875729;29;45421;-74
2022/02/01 09:00:47;;;;;;;;;4.75;4.75;;;;;9.34;63.24;102103.03;4881083;29;45684;-73
2022/02/01 09:03:13;;;;;;;;;7.00;7.00;;;;;9.43;63.42;102102.09;4882456;29;45337;-73
2022/02/01 09:05:48;;;;;;;;;3.50;3.50;;;;;9.43;63.28;102096.75;4885109;29;45706;-74
2022/02/01 09:08:14;;;;;;;;;4.75;3.75;;;;;9.45;63.28;102100.28;4884691;29;45482;-75
2022/02/01 09:10:41;;;;;;;;;4.50;3.50;;;;;9.46;63.41;102099.41;4900789;29;45556;-75
2022/02/01 09:13:07;;;;;;;;;7.75;5.00;;;;;9.45;63.71;102092.28;4885873;29;46936;-75
2022/02/01 09:15:32;;;;;;;;;2.50;2.50;;;;;9.50;63.97;102085.16;4885481;29;45412;-74
2022/02/01 09:17:59;;;;;;;;;8.50;5.00;;;;;9.51;63.76;102072.72;4886009;29;45283;-75
2022/02/01 09:20:25;;;;;;;;;4.00;3.00;;;;;9.56;63.52;102073.56;4886311;29;45347;-75
2022/02/01 09:22:50;;;;;;;;;3.50;2.75;;;;;9.60;63.64;102068.19;4885850;29;45909;-74
2022/02/01 09:25:17;;;;;;;;;9.75;5.75;;;;;9.62;63.67;102070.84;4883333;29;45334;-74
2022/02/01 09:27:44;;;;;;;;;5.00;4.00;;;;;9.63;63.77;102070.84;4884559;29;45416;-75
2022/02/01 09:30:12;;;;;;;;;6.50;3.25;;;;;9.69;63.47;102079.69;4884194;29;45336;-73
2022/02/01 09:32:37;;;;;;;;;4.00;3.00;;;;;9.69;63.87;102061.03;4883220;29;45538;-73
2022/02/01 09:35:03;;;;;;;;;11.00;8.75;;;;;9.73;63.95;102078.78;4882990;29;45497;-73
2022/02/01 09:37:28;;;;;;;;;3.00;3.00;;;;;9.71;63.46;102060.13;4897354;29;45466;-74
2022/02/01 09:39:54;;;;;;;;;4.75;3.00;;;;;9.76;63.50;102062.78;4880582;29;45499;-81
2022/02/01 09:42:24;;;;;;;;;3.00;3.00;;;;;9.77;64.27;102059.19;4883062;29;46124;-77
2022/02/01 09:44:52;;;;;;;;;7.50;4.75;;;;;9.79;63.58;102052.09;4880442;29;45762;-76
2022/02/01 09:47:17;;;;;;;;;4.50;4.50;;;;;9.76;64.27;102044.09;4876671;29;45387;-80
2022/02/01 09:49:45;;;;;;;;;2.25;2.25;;;;;9.79;63.75;102046.75;4882654;29;45458;-81
2022/02/01 09:52:11;;;;;;;;;2.50;2.50;;;;;9.79;64.14;102049.41;4882996;29;45356;-82
2022/02/01 09:54:37;;;;;;;;;4.50;4.50;;;;;9.75;63.89;102050.31;4878514;29;45589;-80
2022/02/01 09:57:07;;;;;;;;;6.00;5.00;;;;;9.82;63.83;102054.69;4884024;29;45323;-75
2022/02/01 09:59:35;;;;;;;;;6.00;5.50;;;;;9.85;63.60;102062.69;4882603;29;45538;-75
2022/02/01 10:02:08;;;;;;;;;4.75;4.00;;;;;9.85;64.07;102045.81;4898833;29;46309;-75
2022/02/01 10:04:34;;;;;;;;;7.00;5.50;;;;;9.90;64.19;102055.53;4874369;29;45495;-75
2022/02/01 10:07:11;;;;;;;;;8.50;7.00;;;;;9.94;63.85;102064.38;4874307;29;45273;-75
2022/02/01 10:09:52;;;;;;;;;7.50;6.00;;;;;9.86;64.07;102042.25;4881566;29;45701;-75
2022/02/01 10:12:19;;;;;;;;;7.50;6.50;;;;;10.00;64.19;102065.22;4884029;29;45485;-76
2022/02/01 10:14:54;;;;;;;;;6.00;4.25;;;;;10.01;63.94;102056.31;4884403;29;45342;-76
2022/02/01 10:17:37;;;;;;;;;5.00;5.00;;;;;10.05;64.17;102051.84;4901641;29;45394;-76
2022/02/01 10:20:03;;;;;;;;;4.25;4.25;;;;;10.10;64.73;102044.66;4884879;29;45450;-75
2022/02/01 10:22:34;;;;;;;;;8.25;5.00;;;;;10.06;64.33;102044.75;4886099;29;45373;-75
2022/02/01 10:25:02;;;;;;;;;5.00;4.00;;;;;10.14;64.34;102050.84;4884211;29;45412;-76
2022/02/01 10:27:31;;;;;;;;;5.50;3.75;;;;;10.16;64.64;102049.09;4884110;29;45412;-76
2022/02/01 10:35:25;;;;;;;;;2.75;2.00;;;;;10.19;65.00;102043.72;4886474;29;45293;-76
2022/02/01 10:38:09;;;;;;;;;3.50;3.00;;;;;10.20;64.74;102037.47;4885937;29;45526;-74
2022/02/01 10:40:40;;;;;;;;;2.00;2.00;;;;;10.23;64.68;102041.91;4897831;29;45511;-75
2022/02/01 10:43:35;;;;;;;;;2.50;2.50;;;;;10.23;64.56;102034.78;4883585;29;46472;-75
2022/02/01 10:46:12;;;;;;;;;2.00;2.00;;;;;10.27;65.05;102023.16;4867306;29;45550;-76
2022/02/01 10:48:45;;;;;;;;;2.75;2.00;;;;;10.24;65.05;102022.31;4899040;29;45545;-75
2022/02/01 10:51:14;;;;;;;;;3.25;3.00;;;;;10.31;65.27;102030.25;4870923;29;45558;-75
2022/02/01 10:53:41;;;;;;;;;3.00;3.00;;;;;10.33;65.14;102033.81;4883253;29;45494;-75
2022/02/01 10:56:09;;;;;;;;;1.00;1.00;;;;;10.37;64.93;102029.31;4881749;29;45408;-75
2022/02/01 10:58:35;;;;;;;;;1.00;1.00;;;;;10.41;65.05;102011.47;4882264;29;45345;-74
2022/02/01 11:01:01;;;;;;;;;3.00;3.00;;;;;10.37;65.43;102008.88;4884076;29;45614;-74
2022/02/01 11:03:28;;;;;;;;;2.00;1.50;;;;;10.40;65.45;102002.59;4884227;29;46149;-73
2022/02/01 11:05:55;;;;;;;;;4.00;3.00;;;;;10.44;65.06;102009.69;4884021;29;45247;-73
2022/02/01 11:08:29;;;;;;;;;1.00;1.00;;;;;10.47;64.76;101992.72;4884317;29;45433;-73
2022/02/01 11:10:55;;;;;;;;;2.00;1.25;;;;;10.49;65.43;101978.47;4883789;29;45409;-74
2022/02/01 11:13:22;;;;;;;;;2.00;2.00;;;;;10.49;65.48;101989.16;4883746;29;45491;-74
2022/02/01 11:16:02;;;;;;;;;2.00;2.00;;;;;10.50;64.87;101974.88;4882597;29;45463;-74
2022/02/01 11:18:28;;;;;;;;;4.25;1.00;;;;;10.54;65.49;101975.72;4883954;29;45253;-74
2022/02/01 11:21:02;;;;;;;;;2.50;2.00;;;;;10.60;65.36;101981.00;4884017;29;45515;-73
2022/02/01 11:23:53;;;;;;;;;1.00;1.00;;;;;10.61;65.07;101977.44;4882978;29;46377;-74
2022/02/01 11:26:22;;;;;;;;;3.00;2.00;;;;;10.64;65.80;101965.81;4885889;29;45462;-76
2022/02/01 11:29:27;;;;;;;;;2.00;2.00;;;;;10.64;65.49;101964.03;4876234;29;45832;-74
2022/02/01 11:31:46;;;;;;;;;4.75;2.75;;;;;10.67;65.56;101971.09;4889813;29;45259;-74
2022/02/01 11:34:38;;;;;;;;;2.25;2.25;;;;;10.67;65.55;101968.44;4888919;29;45395;-75
2022/02/01 11:37:10;;;;;;;;;3.00;2.00;;;;;10.69;65.50;101970.19;4889531;29;45722;-76
2022/02/01 11:39:53;;;;;;;;;4.50;1.75;;;;;10.72;65.69;101961.25;4903784;29;45444;-76
2022/02/01 11:42:21;;;;;;;;;1.00;0.50;;;;;10.75;66.02;101955.88;4889310;29;45387;-76
2022/02/01 11:44:47;;;;;;;;;1.25;1.25;;;;;10.74;65.93;101952.31;4889309;29;45490;-76
2022/02/01 11:47:20;;;;;;;;;3.00;1.00;;;;;10.79;65.59;101952.22;4885170;29;45511;-76
2022/02/01 11:49:57;;;;;;;;;2.75;1.75;;;;;10.79;65.65;101949.56;4881678;29;45451;-76
2022/02/01 11:52:25;;;;;;;;;2.25;2.25;;;;;10.77;66.03;101946.03;4903530;29;45903;-76
2022/02/01 11:55:04;;;;;;;;;1.00;1.00;;;;;10.81;65.84;101944.19;4888772;29;46450;-76
2022/02/01 11:57:30;;;;;;;;;3.25;3.00;;;;;10.85;65.48;101941.47;4888908;29;45484;-76
2022/02/01 12:00:27;;;;;;;;;4.00;3.00;;;;;10.89;66.08;101942.31;4883044;29;45453;-76
2022/02/01 12:02:56;;;;;;;;;2.00;1.50;;;;;10.93;66.11;101944.91;4867217;29;45420;-76
2022/02/01 12:05:28;;;;;;;;;3.00;3.00;;;;;10.94;65.37;101948.47;4888591;29;45825;-76
2022/02/01 12:08:25;;;;;;;;;1.25;1.25;;;;;10.97;65.79;101956.44;4889487;29;45483;-77
2022/02/01 12:10:52;;;;;;;;;3.75;2.00;;;;;10.95;66.04;101936.88;4887958;29;45505;-76
2022/02/01 12:13:23;;;;;;;;;3.50;1.00;;;;;10.94;66.04;101928.00;4888972;29;45445;-76
2022/02/01 12:15:51;;;;;;;;;2.00;2.00;;;;;11.02;65.94;101938.56;4901299;29;47243;-78
2022/02/01 12:18:27;;;;;;;;;1.75;1.00;;;;;11.06;65.91;101944.72;4878962;29;45477;-80
2022/02/01 12:21:06;;;;;;;;;2.50;1.00;;;;;11.07;65.52;101944.69;4879151;29;45422;-77
2022/02/01 12:23:33;;;;;;;;;2.25;2.00;;;;;11.06;65.92;101928.69;4887273;29;45408;-76
2022/02/01 12:25:59;;;;;;;;;1.75;1.75;;;;;11.07;65.82;101917.97;4887746;29;46297;-76
2022/02/01 12:28:30;;;;;;;;;2.00;2.00;;;;;11.13;66.26;101922.38;4902587;29;45885;-75
2022/02/01 12:31:10;;;;;;;;;2.00;2.00;;;;;11.13;65.79;101917.03;4887152;29;45424;-76
2022/02/01 12:33:43;;;;;;;;;1.75;1.00;;;;;11.15;66.28;101904.50;4888127;29;45459;-76
2022/02/01 12:36:10;;;;;;;;;1.75;1.75;;;;;11.15;66.12;101895.63;4883190;29;48026;-76
2022/02/01 12:38:35;;;;;;;;;1.00;1.00;;;;;11.19;66.29;101889.31;4880967;29;45525;-75
2022/02/01 12:41:13;;;;;;;;;3.75;1.00;;;;;11.16;66.01;101878.66;4883952;29;45413;-76
2022/02/01 12:46:43;;;;;;;;;1.00;1.00;;;;;11.19;66.39;101886.63;4882329;29;46072;-77
2022/02/01 12:49:08;;;;;;;;;3.00;2.00;;;;;11.25;65.91;101894.56;4879741;29;46221;-80
2022/02/01 12:51:49;;;;;;;;;1.50;1.50;;;;;11.27;66.48;101887.38;4880537;29;45833;-83
2022/02/01 12:54:29;;;;;;;;;1.00;1.00;;;;;11.19;66.25;101866.13;4884923;29;45562;-81
2022/02/01 12:57:05;;;;;;;;;1.00;1.00;;;;;11.29;66.41;101872.19;4879804;29;45783;-83
2022/02/01 12:59:37;;;;;;;;;1.00;1.00;;;;;11.30;66.63;101866.81;4893074;29;45998;-88
2022/02/01 13:02:08;;;;;;;;;2.50;1.00;;;;;11.31;66.25;101860.59;4881376;29;45764;-85
2022/02/01 13:04:33;;;;;;;;;1.00;1.00;;;;;11.31;66.38;101854.38;4880141;29;45599;-79
2022/02/01 13:07:00;;;;;;;;;3.25;2.25;;;;;11.27;66.51;101847.28;4878013;29;45395;-72
2022/02/01 13:15:14;;;;;;;;;3.25;2.25;;;;;11.38;66.62;101855.13;4875456;29;45546;-76
2022/02/01 13:18:25;;;;;;;;;1.50;1.50;;;;;11.39;66.89;101852.41;4876444;29;45642;-75
2022/02/01 13:20:28;;;;;;;;;2.50;2.00;;;;;11.41;67.14;101845.28;4872427;29;45776;-77
2022/02/01 13:22:56;;;;;;;;;3.25;3.00;;;;;11.42;66.92;101835.44;4869553;29;45570;-76